Time;durP1;ratioP1;P1;durP2;ratioP2;P2;SDS_P1;SDS_P2;PMS_P1;PMS_P2;Temp;Humidity;BMP_temperature;BMP_pressure;BME280_temperature;BME280_humidity;BME280_pressure;Samples;Min_cycle;Max_cycle;Signal;HPM_P1;HPM_P2
2021/07/16 00:00:29;;;;;;;25.55;9.82;;;19.80;99.90;;;19.91;71.30;102103.66;4937474;29;20048;-68
2021/07/16 00:02:58;;;;;;;23.63;9.80;;;19.70;99.90;;;19.90;71.43;102109.94;4937407;29;20047;-68
2021/07/16 00:05:27;;;;;;;20.38;9.25;;;19.70;99.90;;;19.93;70.96;102109.88;4936826;29;20048;-68
2021/07/16 00:07:55;;;;;;;32.83;10.02;;;19.70;99.90;;;19.75;70.97;102102.25;4937334;29;20135;-68
2021/07/16 00:10:24;;;;;;;19.35;8.50;;;19.60;99.90;;;19.87;71.09;102101.97;4937282;29;20119;-68
2021/07/16 00:12:52;;;;;;;27.50;9.50;;;19.60;99.90;;;19.85;70.78;102106.50;4937207;29;20048;-68
2021/07/16 00:15:21;;;;;;;23.75;10.15;;;19.60;99.90;;;19.94;71.00;102098.22;4937310;29;20048;-68
2021/07/16 00:17:51;;;;;;;26.50;9.65;;;19.70;99.90;;;19.89;70.92;102097.44;4937109;29;20050;-68
2021/07/16 00:20:20;;;;;;;25.47;10.03;;;19.60;99.90;;;19.90;70.64;102096.50;4937175;29;20134;-68
2021/07/16 00:22:48;;;;;;;23.75;9.60;;;19.70;99.90;;;20.04;70.08;102102.47;4920047;29;20500;-68
2021/07/16 00:25:17;;;;;;;23.05;9.30;;;19.80;99.90;;;19.98;69.69;102099.00;4936773;29;20095;-68
2021/07/16 00:27:47;;;;;;;24.77;8.63;;;19.80;99.90;;;19.95;69.75;102097.31;4936945;29;20048;-68
2021/07/16 00:30:17;;;;;;;26.65;9.75;;;19.70;99.90;;;20.04;69.30;102094.41;4936603;29;20051;-68
2021/07/16 00:32:46;;;;;;;28.13;10.20;;;19.80;99.90;;;19.57;69.67;102017.63;4936866;29;20043;-68
2021/07/16 00:35:16;;;;;;;20.40;8.75;;;19.80;99.90;;;19.97;69.46;102098.16;4936840;29;20077;-68
2021/07/16 00:37:44;;;;;;;20.13;9.23;;;19.80;99.90;;;19.30;69.27;101990.50;4936785;29;20063;-68
2021/07/16 00:40:14;;;;;;;20.92;8.48;;;19.70;99.90;;;19.99;69.49;102099.00;4936506;29;20497;-68
2021/07/16 00:42:42;;;;;;;28.08;9.13;;;19.70;99.90;;;19.95;69.25;102104.47;4919748;29;20048;-68
2021/07/16 00:45:13;;;;;;;26.73;9.15;;;19.80;99.90;;;19.95;69.20;102102.69;4936724;29;20048;-68
2021/07/16 00:47:44;;;;;;;20.70;9.35;;;19.70;99.90;;;19.93;69.30;102103.63;4936710;29;20107;-68
2021/07/16 00:50:17;;;;;;;20.08;8.80;;;19.60;99.90;;;19.83;69.21;102086.84;4936713;29;20058;-68
2021/07/16 00:52:46;;;;;;;19.35;8.70;;;19.70;99.90;;;20.03;68.66;102111.44;4936529;29;20055;-68
2021/07/16 00:55:16;;;;;;;25.35;8.98;;;19.80;99.90;;;20.06;68.78;102113.16;4936591;29;20055;-68
2021/07/16 00:57:46;;;;;;;24.10;9.05;;;19.80;99.90;;;20.07;68.45;102128.38;4936328;29;20051;-68
2021/07/16 01:00:16;;;;;;;20.25;8.77;;;19.90;99.90;;;20.06;67.91;102113.16;4936412;29;20449;-68
2021/07/16 01:02:48;;;;;;;22.25;8.75;;;19.80;99.90;;;20.01;67.60;102129.41;4936326;29;20601;-68
2021/07/16 01:05:21;;;;;;;19.27;8.70;;;19.80;99.90;;;20.01;67.71;102117.75;4936476;29;20043;-68
2021/07/16 01:07:52;;;;;;;20.10;9.43;;;19.80;99.90;;;19.95;67.47;102108.06;4936200;29;20573;-68
2021/07/16 01:10:22;;;;;;;19.23;8.40;;;19.80;99.90;;;19.98;67.24;102115.13;4936446;29;20036;-68
2021/07/16 01:12:53;;;;;;;16.33;8.70;;;19.80;99.90;;;20.01;67.14;102126.72;4919257;29;20494;-68
2021/07/16 01:15:23;;;;;;;;;;;19.80;99.90;;;19.96;66.72;102111.59;4936472;29;20079;-68
2021/07/16 01:17:52;;;;;;;19.52;7.60;;;19.90;99.90;;;20.05;66.66;102131.09;4935319;29;20371;-68
2021/07/16 01:20:25;;;;;;;18.27;7.70;;;19.80;99.90;;;19.96;66.60;102125.03;4936276;29;20056;-68
2021/07/16 01:22:56;;;;;;;18.83;7.38;;;19.80;99.90;;;19.97;66.56;102119.66;4936316;29;20047;-68
2021/07/16 01:25:28;;;;;;;21.15;8.43;;;19.80;99.90;;;19.98;66.09;102123.19;4936238;29;20050;-68
2021/07/16 01:28:00;;;;;;;24.58;8.98;;;19.80;99.90;;;19.94;65.98;102127.75;4919216;29;20110;-68
2021/07/16 01:30:33;;;;;;;16.63;7.90;;;19.80;99.90;;;19.87;66.20;102112.72;4936216;29;20052;-68
2021/07/16 01:33:05;;;;;;;21.33;9.00;;;19.70;99.90;;;19.91;66.60;102118.88;4936077;29;20520;-68
2021/07/16 01:35:35;;;;;;;22.92;8.57;;;19.70;99.90;;;19.89;66.65;102124.31;4936128;29;20050;-68
2021/07/16 01:38:04;;;;;;;20.10;8.60;;;19.60;99.90;;;19.97;66.51;102126.81;4936175;29;20095;-68
2021/07/16 01:40:37;;;;;;;21.55;8.25;;;19.70;99.90;;;19.94;66.52;102116.16;4936000;29;20454;-68
2021/07/16 01:43:08;;;;;;;19.17;7.85;;;19.70;99.90;;;19.23;66.49;102002.28;4936161;29;20052;-68
2021/07/16 01:45:39;;;;;;;22.00;8.50;;;19.60;99.90;;;19.91;66.26;102122.47;4936089;29;20646;-69
2021/07/16 01:48:10;;;;;;;16.00;7.95;;;19.60;99.90;;;19.97;66.07;102124.13;4936239;29;20044;-68
2021/07/16 01:50:43;;;;;;;24.27;8.82;;;19.70;99.90;;;19.89;65.88;102123.41;4935726;29;20494;-68
2021/07/16 01:53:12;;;;;;;20.95;8.18;;;19.70;99.90;;;19.91;66.49;102124.25;4935982;29;20047;-68
2021/07/16 01:55:42;;;;;;;17.77;8.00;;;19.60;99.90;;;19.87;66.30;102122.56;4935881;29;20052;-68
2021/07/16 01:58:13;;;;;;;19.70;8.25;;;19.60;99.90;;;19.89;66.37;102129.69;4935417;29;20512;-68
2021/07/16 02:00:46;;;;;;;20.27;8.63;;;19.60;99.90;;;19.82;66.13;102116.44;4935746;29;20497;-68
2021/07/16 02:03:18;;;;;;;21.25;7.63;;;19.70;99.90;;;19.99;65.96;102128.56;4935777;29;20044;-68
2021/07/16 02:05:48;;;;;;;29.00;8.82;;;19.70;99.90;;;19.99;66.22;102127.66;4918722;29;20142;-68
2021/07/16 02:08:19;;;;;;;18.38;7.68;;;19.70;99.90;;;19.94;65.81;102121.53;4936136;29;20051;-68
2021/07/16 02:10:53;;;;;;;20.17;8.13;;;19.80;99.90;;;19.66;66.24;102092.59;4936130;29;20549;-68
2021/07/16 02:13:22;;;;;;;21.10;7.45;;;19.70;99.90;;;19.59;65.89;102068.59;4935678;29;20424;-68
2021/07/16 02:15:53;;;;;;;19.15;7.20;;;19.70;99.90;;;19.88;66.17;102125.22;4935589;29;20050;-68
2021/07/16 02:18:22;;;;;;;27.80;7.63;;;19.70;99.90;;;19.94;66.07;102127.75;4936103;29;20075;-68
2021/07/16 02:20:53;;;;;;;20.93;7.40;;;19.70;99.90;;;19.80;66.11;102114.63;4935848;29;20106;-68
2021/07/16 02:23:23;;;;;;;;;;;19.70;99.90;;;19.76;66.06;102131.72;4936177;29;20453;-68
2021/07/16 02:25:54;;;;;;;19.87;6.80;;;19.60;99.90;;;19.77;66.33;102132.63;4936102;29;19923;-68
2021/07/16 02:28:24;;;;;;;;;;;19.60;99.90;;;19.76;65.99;102125.50;4936394;29;20287;-68
2021/07/16 02:30:53;;;;;;;22.05;8.07;;;19.60;99.90;;;19.77;66.37;102133.53;4939242;29;19938;-68
2021/07/16 02:33:22;;;;;;;17.38;6.85;;;19.60;99.90;;;19.75;66.06;102135.34;4938994;29;20093;-68
2021/07/16 02:35:52;;;;;;;18.45;7.10;;;19.50;99.90;;;19.75;65.58;102142.53;4921914;29;20062;-68
2021/07/16 02:38:22;;;;;;;17.70;6.80;;;19.60;99.90;;;19.68;64.73;102144.47;4938959;29;20095;-68
2021/07/16 02:40:52;;;;;;;19.92;7.38;;;19.50;99.90;;;19.68;64.54;102149.84;4921880;29;20556;-68
2021/07/16 02:43:24;;;;;;;21.83;7.55;;;19.50;99.90;;;19.72;64.22;102156.88;4938702;29;20044;-68
2021/07/16 02:45:54;;;;;;;19.00;7.07;;;19.50;99.90;;;19.70;64.39;102152.50;4938740;29;20405;-68
2021/07/16 02:48:23;;;;;;;16.15;7.53;;;19.50;99.90;;;19.73;64.32;102136.28;4938905;29;20047;-68
2021/07/16 02:50:51;;;;;;;17.98;7.15;;;19.50;99.90;;;19.76;64.11;102138.94;4938754;29;20071;-68
2021/07/16 02:53:20;;;;;;;20.67;7.50;;;19.60;99.90;;;19.83;64.04;102136.97;4937544;29;20063;-68
2021/07/16 02:55:52;;;;;;;26.20;7.40;;;19.60;99.90;;;19.42;63.96;102102.97;4938636;29;20048;-68
2021/07/16 02:58:22;;;;;;;19.08;7.05;;;19.40;99.90;;;19.51;64.45;102133.19;4938586;29;20083;-68
2021/07/16 03:00:51;;;;;;;22.00;6.97;;;19.30;99.90;;;19.53;64.64;102139.41;4938652;29;20066;-68
2021/07/16 03:03:23;;;;;;;23.63;7.30;;;19.30;99.90;;;19.49;64.87;102131.47;4938369;29;20047;-68
2021/07/16 03:05:51;;;;;;;22.58;7.40;;;19.30;99.90;;;19.61;64.87;102132.06;4938549;29;20494;-68
2021/07/16 03:08:20;;;;;;;18.67;6.93;;;19.30;99.90;;;19.44;64.67;102117.25;4921370;29;20564;-68
2021/07/16 03:10:49;;;;;;;23.27;7.25;;;19.30;99.90;;;19.56;64.50;102138.47;4921349;29;20048;-68
2021/07/16 03:13:20;;;;;;;17.50;7.00;;;19.30;99.90;;;19.60;64.55;102134.81;4938378;29;20044;-68
2021/07/16 03:15:51;;;;;;;22.67;7.47;;;19.40;99.90;;;19.59;64.30;102131.22;4938460;29;20500;-68
2021/07/16 03:18:20;;;;;;;27.92;7.80;;;19.40;99.90;;;19.57;64.15;102134.84;4938188;29;20139;-68
2021/07/16 03:20:49;;;;;;;20.08;7.05;;;19.40;99.90;;;19.60;64.32;102137.47;4921230;29;20047;-68
2021/07/16 03:23:18;;;;;;;20.98;7.93;;;19.40;99.90;;;19.48;64.70;102108.22;4937742;29;20067;-68
2021/07/16 03:25:47;;;;;;;22.58;7.75;;;19.40;99.90;;;19.69;64.15;102134.59;4938133;29;20468;-68
2021/07/16 03:28:15;;;;;;;18.58;7.20;;;19.50;99.90;;;19.69;64.34;102129.22;4937887;29;20138;-68
2021/07/16 03:30:45;;;;;;;19.10;7.00;;;19.40;99.90;;;19.78;63.56;102137.09;4938027;29;20111;-69
2021/07/16 03:33:13;;;;;;;23.60;7.23;;;19.50;99.90;;;19.60;63.73;102133.00;4937713;29;20043;-68
2021/07/16 03:35:44;;;;;;;17.65;7.07;;;19.50;99.90;;;19.66;63.80;102123.94;4937625;29;20657;-68
2021/07/16 03:38:12;;;;;;;24.83;7.72;;;19.50;99.90;;;19.73;63.52;102133.59;4937969;29;20052;-69
2021/07/16 03:40:43;;;;;;;22.00;7.68;;;19.50;99.90;;;19.71;63.51;102138.13;4937265;29;20082;-68
2021/07/16 03:43:11;;;;;;;24.75;7.22;;;19.50;99.90;;;19.74;63.50;102138.09;4937839;29;20044;-68
2021/07/16 03:45:40;;;;;;;15.23;7.03;;;19.50;99.90;;;19.81;63.00;102139.69;4938001;29;20083;-68
2021/07/16 03:48:10;;;;;;;30.13;8.20;;;19.50;99.90;;;19.78;63.46;102145.16;4937458;29;20470;-68
2021/07/16 03:50:38;;;;;;;24.70;7.63;;;19.50;99.90;;;19.71;63.36;102127.38;4937759;29;20051;-69
2021/07/16 03:53:07;;;;;;;21.13;7.68;;;19.50;99.90;;;19.76;63.64;102130.88;4937644;29;20103;-69
2021/07/16 03:55:36;;;;;;;22.83;7.43;;;19.50;99.90;;;19.77;64.16;102132.63;4937480;29;20047;-68
2021/07/16 03:58:05;;;;;;;24.25;7.93;;;19.50;99.90;;;19.77;64.14;102133.53;4937565;29;20044;-68
2021/07/16 04:00:34;;;;;;;22.48;7.05;;;19.50;99.90;;;19.67;64.39;102113.16;4937233;29;20055;-68
2021/07/16 04:03:05;;;;;;;22.67;7.45;;;19.50;99.90;;;19.89;64.12;102143.09;4937368;29;20082;-68
2021/07/16 04:05:39;;;;;;;17.08;7.28;;;19.60;99.90;;;19.89;64.21;102136.84;4920222;29;20055;-68
2021/07/16 04:08:10;;;;;;;23.75;7.50;;;19.60;99.90;;;19.89;64.26;102132.38;4937578;29;20051;-68
2021/07/16 04:10:39;;;;;;;22.38;7.05;;;19.60;99.90;;;19.85;64.31;102132.47;4937467;29;20044;-68
2021/07/16 04:13:11;;;;;;;18.38;6.97;;;19.60;99.90;;;19.83;64.40;102135.19;4937476;29;20398;-68
2021/07/16 04:15:40;;;;;;;;;;;19.60;99.90;;;19.81;64.35;102137.00;4937325;29;20052;-68
2021/07/16 04:18:10;;;;;;;22.45;7.30;;;19.60;99.90;;;19.88;64.18;102141.31;4937065;29;20009;-68
2021/07/16 04:20:41;;;;;;;24.13;7.38;;;19.60;99.90;;;19.77;64.38;102138.88;4919943;29;20497;-68
2021/07/16 04:23:10;;;;;;;27.98;7.88;;;19.50;99.90;;;19.89;64.44;102151.16;4937009;29;20151;-68
2021/07/16 04:25:39;;;;;;;20.63;7.38;;;19.50;99.90;;;19.92;64.29;102156.47;4936555;29;20054;-68
2021/07/16 04:28:09;;;;;;;25.73;7.18;;;19.60;99.90;;;19.90;64.11;102155.59;4919814;29;20051;-68
2021/07/16 04:30:38;;;;;;;33.63;7.90;;;19.60;99.90;;;19.91;64.48;102152.03;4936805;29;20509;-68
2021/07/16 04:33:09;;;;;;;20.88;6.90;;;19.60;99.90;;;19.77;64.29;102127.25;4919739;29;20485;-68
2021/07/16 04:35:39;;;;;;;25.92;7.25;;;19.60;99.90;;;19.97;64.09;102159.94;4936989;29;20052;-68
2021/07/16 04:38:08;;;;;;;29.83;8.15;;;19.70;99.90;;;19.99;64.42;102157.22;4936650;29;20110;-68
2021/07/16 04:40:36;;;;;;;24.60;8.05;;;19.70;99.90;;;19.94;64.49;102165.38;4936592;29;20058;-68
2021/07/16 04:43:05;;;;;;;28.50;7.40;;;19.70;99.90;;;19.82;64.63;102157.59;4936818;29;20050;-68
2021/07/16 04:45:37;;;;;;;32.58;6.93;;;19.60;99.90;;;19.85;64.70;102157.53;4936423;29;20466;-68
2021/07/16 04:48:08;;;;;;;26.45;7.10;;;19.60;99.90;;;19.71;65.23;102156.94;4919533;29;20457;-68
2021/07/16 04:50:39;;;;;;;23.48;6.97;;;19.50;99.90;;;19.71;65.03;102159.63;4936292;29;20445;-68
2021/07/16 04:53:07;;;;;;;;;;;19.40;99.90;;;19.68;64.96;102160.59;4936267;29;20051;-68
2021/07/16 04:55:36;;;;;;;20.48;7.13;;;19.50;99.90;;;19.79;64.85;102163.03;4936589;29;19923;-68
2021/07/16 04:58:04;;;;;;;33.92;8.00;;;19.50;99.90;;;19.64;64.90;102160.66;4936265;29;20058;-68
2021/07/16 05:00:33;;;;;;;23.40;7.22;;;19.40;99.90;;;19.75;64.77;102158.63;4936237;29;20043;-68
2021/07/16 05:03:02;;;;;;;25.05;7.72;;;19.50;99.90;;;19.67;65.28;102158.78;4936225;29;20051;-68
2021/07/16 05:05:31;;;;;;;23.42;7.30;;;19.40;99.90;;;19.74;65.49;102160.41;4919192;29;20559;-68
2021/07/16 05:08:01;;;;;;;26.83;7.53;;;19.50;99.90;;;19.78;65.39;102161.28;4936173;29;20513;-68
2021/07/16 05:10:29;;;;;;;22.67;7.13;;;19.50;99.90;;;19.76;64.96;102160.41;4919015;29;20051;-68
2021/07/16 05:12:58;;;;;;;25.98;7.47;;;19.50;99.90;;;19.74;65.04;102157.75;4935962;29;20707;-68
2021/07/16 05:15:29;;;;;;;20.15;7.15;;;19.50;99.90;;;19.74;65.09;102159.56;4935791;29;20075;-68
2021/07/16 05:17:57;;;;;;;22.30;6.60;;;19.50;99.90;;;19.81;65.13;102166.56;4919281;29;20044;-68
2021/07/16 05:20:26;;;;;;;20.13;6.63;;;19.50;99.90;;;19.76;64.89;102137.09;4935655;29;20142;-68
2021/07/16 05:22:55;;;;;;;22.48;6.95;;;19.60;99.90;;;19.86;64.64;102170.03;4936018;29;20071;-68
2021/07/16 05:25:26;;;;;;;19.02;6.28;;;19.60;99.90;;;19.83;64.66;102175.47;4936272;29;20054;-68
2021/07/16 05:27:54;;;;;;;;;;;19.60;99.90;;;19.54;64.42;102142.97;4936820;29;20053;-68
2021/07/16 05:30:23;;;;;;;21.45;6.80;;;19.50;99.90;;;19.74;64.07;102168.47;4936063;29;19977;-68
2021/07/16 05:32:51;;;;;;;20.20;6.85;;;19.50;99.90;;;19.77;63.87;102175.59;4935978;29;20038;-68
2021/07/16 05:35:22;;;;;;;20.95;7.03;;;19.50;99.90;;;19.81;63.99;102182.66;4935807;29;20098;-68
2021/07/16 05:37:51;;;;;;;21.25;6.47;;;19.50;99.90;;;19.72;63.86;102183.75;4936199;29;20040;-68
2021/07/16 05:40:20;;;;;;;24.17;7.07;;;19.50;99.90;;;19.78;64.01;102182.75;4936100;29;20079;-68
2021/07/16 05:42:49;;;;;;;23.85;7.05;;;19.50;99.90;;;19.83;63.71;102180.84;4918744;29;20102;-68
2021/07/16 05:45:18;;;;;;;25.20;6.90;;;19.50;99.90;;;19.77;64.08;102186.34;4935894;29;20051;-68
2021/07/16 05:47:47;;;;;;;21.30;7.63;;;19.50;99.90;;;19.84;64.10;102190.66;4935950;29;20040;-68
2021/07/16 05:50:15;;;;;;;28.63;7.13;;;19.60;99.90;;;19.82;64.46;102192.50;4935623;29;20040;-68
2021/07/16 05:52:44;;;;;;;22.35;6.57;;;19.50;99.90;;;19.69;64.95;102199.03;4935811;29;20054;-69
2021/07/16 05:55:18;;;;;;;21.65;6.43;;;19.40;99.90;;;19.78;65.41;102185.44;4935608;29;20553;-68
2021/07/16 05:57:46;;;;;;;26.43;8.17;;;19.50;99.90;;;19.80;65.12;102197.03;4935842;29;20057;-70
2021/07/16 06:00:18;;;;;;;19.02;6.78;;;19.60;99.90;;;19.81;65.25;102185.38;4918365;29;20139;-74
2021/07/16 06:02:47;;;;;;;24.30;7.20;;;19.60;99.90;;;19.93;65.31;102192.25;4935749;29;20048;-86
2021/07/16 06:05:16;;;;;;;19.33;6.68;;;19.60;99.90;;;19.94;65.59;102192.22;4938257;29;20091;-67
2021/07/16 06:07:44;;;;;;;23.13;6.55;;;19.70;99.90;;;20.00;65.34;102194.78;4939572;29;20066;-70
2021/07/16 06:10:19;;;;;;;26.15;7.28;;;19.70;99.90;;;19.94;65.12;102192.22;4939674;29;20090;-70
2021/07/16 06:12:48;;;;;;;20.98;6.63;;;19.70;99.90;;;19.92;64.85;102199.44;4939230;29;20485;-71
2021/07/16 06:15:18;;;;;;;26.58;7.22;;;19.70;99.90;;;19.54;64.76;102124.19;4922289;29;20106;-71
2021/07/16 06:17:46;;;;;;;29.70;7.50;;;19.70;99.90;;;19.95;65.18;102191.31;4939633;29;20430;-71
2021/07/16 06:20:15;;;;;;;21.92;7.57;;;19.70;99.90;;;20.00;65.35;102184.03;4939409;29;20044;-74
2021/07/16 06:22:45;;;;;;;21.65;7.13;;;19.70;99.90;;;20.07;64.99;102201.81;4939205;29;20055;-71
2021/07/16 06:25:17;;;;;;;35.70;6.65;;;19.80;99.90;;;19.94;64.61;102181.47;4939298;29;20050;-69
2021/07/16 06:27:46;;;;;;;26.63;7.75;;;19.90;99.90;;;20.14;64.61;102214.19;4938942;29;20076;-70
2021/07/16 06:30:18;;;;;;;18.98;6.82;;;19.80;99.90;;;20.19;65.15;102211.44;4939029;29;20382;-73
2021/07/16 06:32:47;;;;;;;25.83;7.90;;;19.90;99.90;;;20.02;65.50;102210.84;4921989;29;20103;-71
2021/07/16 06:35:15;;;;;;;24.35;8.13;;;19.80;99.90;;;19.58;65.52;102142.91;4939052;29;20126;-71
2021/07/16 06:37:44;;;;;;;24.10;7.88;;;19.80;99.90;;;20.10;65.65;102225.91;4921989;29;20405;-70
2021/07/16 06:40:14;;;;;;;21.08;7.47;;;19.80;99.90;;;20.15;65.56;102234.75;4921774;29;20086;-73
2021/07/16 06:42:42;;;;;;;21.77;7.35;;;19.80;99.90;;;20.19;64.93;102233.78;4938906;29;20055;-75
2021/07/16 06:45:11;;;;;;;24.40;7.85;;;19.90;99.90;;;20.20;65.31;102219.44;4921802;29;20402;-67
2021/07/16 06:47:41;;;;;;;24.27;7.43;;;19.90;99.90;;;20.10;65.28;102201.72;4938708;29;20047;-67
2021/07/16 06:50:11;;;;;;;19.60;6.60;;;20.00;99.90;;;20.30;64.60;102228.19;4938789;29;20047;-66
2021/07/16 06:52:41;;;;;;;20.27;6.57;;;20.00;99.90;;;20.26;64.05;102221.13;4938365;29;20043;-66
2021/07/16 06:55:10;;;;;;;25.20;7.20;;;20.10;99.90;;;20.36;64.25;102231.59;4938661;29;20099;-64
2021/07/16 06:57:38;;;;;;;30.92;7.40;;;20.10;99.90;;;20.25;64.05;102222.91;4938545;29;20051;-69
2021/07/16 07:00:08;;;;;;;27.92;7.63;;;20.10;99.90;;;20.35;64.20;102224.47;4938109;29;20561;-69
2021/07/16 07:02:37;;;;;;;26.08;7.13;;;20.20;99.90;;;20.28;64.67;102222.84;4938522;29;20108;-69
2021/07/16 07:05:09;;;;;;;23.92;7.32;;;20.10;99.90;;;20.37;64.95;102228.00;4938171;29;20051;-69
2021/07/16 07:07:37;;;;;;;27.17;7.38;;;20.10;99.90;;;20.35;64.38;102232.53;4920924;29;20071;-69
2021/07/16 07:10:07;;;;;;;29.25;7.78;;;20.20;99.90;;;20.34;64.14;102224.53;4938259;29;20055;-69
2021/07/16 07:12:38;;;;;;;23.15;6.80;;;20.20;99.90;;;20.30;63.84;102234.47;4938109;29;20036;-69
2021/07/16 07:15:08;;;;;;;22.08;7.05;;;20.20;99.90;;;20.35;63.94;102240.59;4937498;29;20040;-69
2021/07/16 07:17:39;;;;;;;28.73;7.75;;;20.10;99.90;;;20.31;64.27;102238.91;4938425;29;20062;-69
2021/07/16 07:20:12;;;;;;;27.75;7.45;;;20.20;99.90;;;20.08;64.45;102222.38;4939729;29;20453;-69
2021/07/16 07:22:41;;;;;;;28.63;7.47;;;20.00;99.90;;;20.27;64.65;102233.63;4938273;29;20094;-69
2021/07/16 07:25:11;;;;;;;24.02;7.10;;;20.10;99.90;;;20.21;65.13;102234.66;4920774;29;20409;-69
2021/07/16 07:27:40;;;;;;;28.40;8.32;;;20.00;99.90;;;20.24;64.68;102233.69;4937815;29;20078;-69
2021/07/16 07:30:10;;;;;;;18.65;6.75;;;20.10;99.90;;;20.31;64.80;102252.34;4921104;29;20083;-69
2021/07/16 07:32:38;;;;;;;23.95;6.32;;;20.10;99.90;;;20.30;64.30;102250.59;4937918;29;20047;-69
2021/07/16 07:35:11;;;;;;;23.35;7.75;;;20.10;99.90;;;19.86;65.04;102231.78;4937964;29;20047;-69
2021/07/16 07:37:40;;;;;;;27.08;7.05;;;19.80;99.90;;;20.00;65.38;102223.44;4937660;29;20378;-69
2021/07/16 07:40:12;;;;;;;28.05;7.68;;;19.90;99.90;;;20.07;65.80;102250.19;4937417;29;20044;-69
2021/07/16 07:42:41;;;;;;;21.23;6.93;;;19.80;99.90;;;20.22;65.80;102255.25;4937545;29;20525;-69
2021/07/16 07:45:15;;;;;;;26.15;7.57;;;19.90;99.90;;;20.27;64.78;102250.63;4937792;29;20043;-69
2021/07/16 07:47:44;;;;;;;27.02;8.27;;;20.00;99.90;;;20.30;64.16;102257.75;4937432;29;20126;-69
2021/07/16 07:50:17;;;;;;;23.52;7.18;;;20.10;99.90;;;20.45;63.98;102252.03;4937672;29;20071;-69
2021/07/16 07:52:49;;;;;;;26.98;7.22;;;20.20;99.90;;;20.58;64.01;102265.16;4937778;29;20048;-69
2021/07/16 07:55:20;;;;;;;22.75;6.95;;;20.30;99.90;;;20.72;63.14;102272.00;4937721;29;20434;-69
2021/07/16 07:57:51;;;;;;;;;;;20.50;99.90;;;20.66;62.33;102263.19;4938376;29;20056;-69
2021/07/16 08:00:25;;;;;;;24.35;6.57;;;20.60;99.90;;;20.74;62.64;102271.06;4920688;29;19927;-69
2021/07/16 08:02:55;;;;;;;25.63;6.93;;;20.60;99.90;;;20.84;62.88;102272.63;4937696;29;20107;-69
2021/07/16 08:05:25;;;;;;;29.90;7.53;;;20.60;99.90;;;20.70;63.59;102269.34;4937394;29;20052;-69
2021/07/16 08:07:54;;;;;;;28.27;8.30;;;20.50;99.90;;;20.78;64.06;102279.94;4937539;29;20040;-69
2021/07/16 08:10:23;;;;;;;28.52;7.30;;;20.60;99.90;;;20.79;64.03;102279.03;4937226;29;20047;-69
2021/07/16 08:12:52;;;;;;;23.05;7.38;;;20.60;99.90;;;20.83;64.15;102265.44;4937320;29;20044;-69
2021/07/16 08:15:21;;;;;;;27.52;7.35;;;20.60;99.90;;;20.48;64.41;102263.59;4937365;29;20052;-69
2021/07/16 08:17:49;;;;;;;25.50;7.43;;;20.40;99.90;;;20.51;64.50;102274.28;4937096;29;20050;-69
2021/07/16 08:20:18;;;;;;;27.13;8.55;;;20.30;99.90;;;20.44;64.61;102255.66;4937081;29;20396;-69
2021/07/16 08:22:48;;;;;;;24.80;7.38;;;20.30;99.90;;;20.10;64.37;102176.66;4937299;29;20039;-69
2021/07/16 08:25:16;;;;;;;26.50;7.63;;;20.40;99.90;;;20.68;63.47;102281.97;4937147;29;20099;-69
2021/07/16 08:27:45;;;;;;;19.98;7.25;;;20.40;99.90;;;20.76;63.79;102287.16;4936867;29;20063;-69
2021/07/16 08:30:14;;;;;;;21.27;7.63;;;20.50;99.90;;;20.81;63.02;102279.88;4920080;29;20083;-69
2021/07/16 08:32:43;;;;;;;24.15;7.65;;;20.60;99.90;;;20.87;63.00;102291.34;4936879;29;20095;-69
2021/07/16 08:35:14;;;;;;;30.42;7.85;;;20.60;99.90;;;21.04;62.85;102297.22;4936998;29;20052;-69
2021/07/16 08:37:43;;;;;;;26.38;7.57;;;20.80;99.90;;;21.00;62.75;102302.72;4937014;29;20059;-69
2021/07/16 08:40:15;;;;;;;26.60;7.75;;;20.80;99.90;;;21.10;62.45;102307.00;4937074;29;20051;-69
2021/07/16 08:42:47;;;;;;;24.77;7.30;;;20.80;99.90;;;20.87;62.64;102304.81;4936855;29;20051;-69
2021/07/16 08:45:16;;;;;;;26.77;7.45;;;20.70;99.90;;;20.95;62.88;102305.50;4919587;29;20062;-69
2021/07/16 08:47:45;;;;;;;23.25;7.53;;;20.70;99.90;;;20.91;62.94;102300.22;4936481;29;20458;-69
2021/07/16 08:50:15;;;;;;;27.02;8.23;;;20.70;99.90;;;20.89;62.35;102286.81;4937115;29;20048;-69
2021/07/16 08:52:46;;;;;;;25.53;7.70;;;20.70;99.90;;;21.00;61.58;102308.09;4936526;29;20126;-69
2021/07/16 08:55:19;;;;;;;26.08;8.20;;;20.80;99.90;;;21.10;61.81;102304.31;4936241;29;20051;-69
2021/07/16 08:57:47;;;;;;;24.67;8.00;;;20.90;99.90;;;20.96;61.47;102309.09;4936516;29;20100;-70
2021/07/16 09:00:16;;;;;;;24.42;7.70;;;20.80;99.90;;;20.87;62.29;102303.91;4936423;29;20454;-70
2021/07/16 09:02:54;;;;;;;25.92;8.50;;;20.70;99.90;;;20.88;62.63;102317.34;4935967;29;20493;-69
2021/07/16 09:05:37;;;;;;;28.83;7.15;;;20.70;99.90;;;20.43;63.48;102313.91;4936136;29;20047;-69
2021/07/16 09:08:14;;;;;;;19.45;8.05;;;20.40;99.90;;;20.09;63.78;102205.31;4936172;29;20054;-69
2021/07/16 09:10:50;;;;;;;27.02;7.93;;;20.40;99.90;;;20.87;63.21;102310.19;4936111;29;20413;-69
2021/07/16 09:13:20;;;;;;;25.10;7.65;;;20.60;99.90;;;20.68;63.69;102312.44;4918978;29;20075;-69
2021/07/16 09:15:51;;;;;;;25.90;8.07;;;20.50;99.90;;;20.71;64.04;102313.28;4936392;29;20047;-69
2021/07/16 09:18:23;;;;;;;23.05;7.78;;;20.50;99.90;;;20.93;64.16;102309.16;4936422;29;20122;-69
2021/07/16 09:21:07;;;;;;;20.92;8.27;;;20.70;99.90;;;21.09;63.33;102313.28;4919299;29;20302;-69
2021/07/16 09:23:38;;;;;;;30.63;8.77;;;20.90;99.90;;;21.13;62.40;102321.25;4936124;29;20126;-69
2021/07/16 09:26:12;;;;;;;26.73;7.55;;;21.00;99.90;;;21.08;62.44;102298.06;4936071;29;20091;-69
2021/07/16 09:28:43;;;;;;;23.42;7.38;;;21.00;99.90;;;21.20;61.74;102311.19;4936188;29;20043;-69
2021/07/16 09:31:16;;;;;;;26.35;7.75;;;21.00;99.90;;;21.35;62.21;102313.53;4936096;29;20039;-70
2021/07/16 09:33:48;;;;;;;25.60;8.18;;;21.10;99.90;;;21.46;61.86;102320.41;4919019;29;20477;-69
2021/07/16 09:36:26;;;;;;;21.08;7.68;;;21.20;99.90;;;21.55;62.35;102320.16;4936145;29;20051;-70
2021/07/16 09:38:58;;;;;;;25.52;7.60;;;21.30;99.90;;;21.67;61.73;102332.41;4920207;29;20056;-69
2021/07/16 09:41:28;;;;;;;29.60;8.45;;;21.40;99.90;;;21.71;61.20;102327.81;4940082;29;20044;-69
2021/07/16 09:44:01;;;;;;;23.93;8.40;;;21.40;99.90;;;21.73;61.32;102329.53;4924549;29;20036;-69
2021/07/16 09:46:29;;;;;;;26.80;8.38;;;21.50;99.90;;;21.64;61.71;102310.91;4942863;29;20311;-70
2021/07/16 09:49:13;;;;;;;25.40;7.40;;;21.50;99.90;;;21.58;61.33;102329.06;4939938;29;20118;-69
2021/07/16 09:51:43;;;;;;;25.17;8.10;;;21.40;99.90;;;21.18;60.83;102256.50;4939752;29;20478;-69
2021/07/16 09:54:14;;;;;;;26.40;8.60;;;21.40;99.90;;;21.46;60.93;102312.31;4922662;29;20063;-69
2021/07/16 09:56:46;;;;;;;27.67;9.05;;;21.30;99.90;;;21.74;61.37;102338.53;4939607;29;20405;-69
2021/07/16 09:59:17;;;;;;;23.77;8.18;;;21.50;99.90;;;21.74;61.22;102316.97;4939679;29;20055;-69
2021/07/16 10:01:49;;;;;;;24.15;8.45;;;21.60;99.90;;;21.43;61.87;102319.56;4939651;29;20043;-69
2021/07/16 10:04:20;;;;;;;31.27;9.07;;;21.40;99.90;;;21.28;62.51;102333.44;4939286;29;20079;-69
2021/07/16 10:06:52;;;;;;;30.63;8.02;;;21.10;99.90;;;21.36;62.60;102335.03;4939220;29;20449;-69
2021/07/16 10:09:24;;;;;;;28.95;7.95;;;21.20;99.90;;;21.44;62.26;102359.94;4939699;29;20135;-69
2021/07/16 10:11:56;;;;;;;28.42;8.73;;;21.20;99.90;;;21.42;62.90;102352.81;4939587;29;20047;-69
2021/07/16 10:14:25;;;;;;;27.27;9.10;;;21.20;99.90;;;21.56;62.75;102356.06;4939609;29;20482;-70
2021/07/16 10:16:55;;;;;;;20.95;7.65;;;21.30;99.90;;;21.64;62.69;102356.72;4939420;29;20047;-70
2021/07/16 10:19:24;;;;;;;28.17;8.30;;;21.40;99.90;;;21.54;61.88;102349.81;4939173;29;20047;-69